Time;durP1;ratioP1;P1;durP2;ratioP2;P2;SDS_P1;SDS_P2;PMS_P1;PMS_P2;Temp;Humidity;BMP_temperature;BMP_pressure;BME280_temperature;BME280_humidity;BME280_pressure;Samples;Min_cycle;Max_cycle;Signal;HPM_P1;HPM_P2
2023/07/08 00:02:14;;;;;;;16.65;16.05;;;24.80;99.90;;;;;;5021901;28;20240;-68
2023/07/08 00:04:43;;;;;;;17.10;16.42;;;24.70;99.90;;;;;;5019966;28;20566;-68
2023/07/08 00:07:13;;;;;;;18.70;18.00;;;24.60;99.90;;;;;;5012648;28;20612;-67
2023/07/08 00:09:40;;;;;;;17.98;17.35;;;24.50;99.90;;;;;;5012420;28;20216;-68
2023/07/08 00:12:11;;;;;;;17.95;17.25;;;24.50;99.90;;;;;;5026788;28;20227;-68
2023/07/08 00:14:38;;;;;;;17.88;17.17;;;24.60;99.90;;;;;;5030186;28;20736;-68
2023/07/08 00:17:12;;;;;;;17.95;17.33;;;24.60;99.90;;;;;;5030115;28;20286;-69
2023/07/08 00:19:38;;;;;;;17.48;16.88;;;24.50;99.90;;;;;;5029051;28;20244;-69
2023/07/08 00:22:12;;;;;;;17.13;16.42;;;24.50;99.90;;;;;;5029508;28;20239;-69
2023/07/08 00:24:39;;;;;;;17.33;16.73;;;24.50;99.90;;;;;;5029687;28;20570;-69
2023/07/08 00:27:06;;;;;;;17.65;16.75;;;24.50;99.90;;;;;;5029491;28;20208;-69
2023/07/08 00:29:33;;;;;;;16.40;15.80;;;24.40;99.90;;;;;;5028847;28;20200;-68
2023/07/08 00:31:59;;;;;;;17.75;17.05;;;24.40;99.90;;;;;;5029306;28;20721;-68
2023/07/08 00:34:28;;;;;;;16.40;15.80;;;24.40;99.90;;;;;;5029695;28;20300;-68
2023/07/08 00:36:54;;;;;;;17.15;16.55;;;24.40;99.90;;;;;;5027486;28;20218;-68
2023/07/08 00:39:21;;;;;;;17.88;17.08;;;24.30;99.90;;;;;;5029653;28;20208;-68
2023/07/08 00:41:50;;;;;;;16.17;15.57;;;24.30;99.90;;;;;;5028483;28;20730;-68
2023/07/08 00:44:17;;;;;;;21.75;20.92;;;24.30;99.90;;;;;;5029553;28;20208;-68
2023/07/08 00:46:54;;;;;;;17.35;16.75;;;24.30;99.90;;;;;;5029773;28;20686;-69
2023/07/08 00:49:37;;;;;;;17.60;16.90;;;24.40;99.90;;;;;;5029653;28;20355;-69
2023/07/08 00:52:23;;;;;;;17.00;16.40;;;24.40;99.90;;;;;;5028718;28;20239;-69
2023/07/08 00:54:51;;;;;;;16.98;16.38;;;24.40;99.90;;;;;;5029062;28;20207;-69
2023/07/08 00:57:19;;;;;;;17.00;16.40;;;24.30;99.90;;;;;;5029050;28;20606;-69
2023/07/08 00:59:50;;;;;;;16.88;16.27;;;24.20;99.90;;;;;;5028329;28;20842;-69
2023/07/08 01:02:20;;;;;;;17.58;16.98;;;24.20;99.90;;;;;;5029257;28;20224;-69
2023/07/08 01:04:54;;;;;;;16.08;15.48;;;24.20;99.90;;;;;;5018295;28;20211;-68
2023/07/08 01:07:22;;;;;;;15.55;14.98;;;24.20;99.90;;;;;;5009466;28;20205;-68
2023/07/08 01:09:53;;;;;;;17.73;17.10;;;24.20;99.90;;;;;;5011498;28;20205;-68
2023/07/08 01:12:26;;;;;;;15.70;15.10;;;24.20;99.90;;;;;;5030310;28;20235;-68
2023/07/08 01:14:54;;;;;;;17.20;16.60;;;24.20;99.90;;;;;;5031283;28;20197;-68
2023/07/08 01:17:22;;;;;;;17.20;16.60;;;24.20;99.90;;;;;;5042593;28;20268;-69
2023/07/08 01:19:55;;;;;;;18.13;17.42;;;24.10;99.90;;;;;;5035330;28;20284;-69
2023/07/08 01:22:23;;;;;;;18.02;17.33;;;24.10;99.90;;;;;;5034711;28;20220;-69
2023/07/08 01:24:50;;;;;;;16.00;15.40;;;24.10;99.90;;;;;;5030255;28;20288;-69
2023/07/08 01:27:20;;;;;;;19.58;18.88;;;24.10;99.90;;;;;;5030662;28;20235;-69
2023/07/08 01:29:48;;;;;;;18.50;17.80;;;24.10;99.90;;;;;;5029736;28;20617;-69
2023/07/08 01:32:17;;;;;;;16.10;15.50;;;24.10;99.90;;;;;;5029755;28;20235;-70
2023/07/08 01:34:59;;;;;;;16.80;16.20;;;24.10;99.90;;;;;;5029647;28;20289;-69
2023/07/08 01:37:32;;;;;;;15.98;15.40;;;24.00;99.90;;;;;;5028748;28;20192;-69
2023/07/08 01:40:13;;;;;;;15.93;15.40;;;24.00;99.90;;;;;;5027707;28;20694;-68
2023/07/08 01:42:40;;;;;;;16.08;15.48;;;24.00;99.90;;;;;;5019002;22;20814;-64
2023/07/08 01:45:12;;;;;;;15.15;14.65;;;24.00;99.90;;;;;;5014487;28;20211;-68
2023/07/08 01:47:40;;;;;;;15.52;14.93;;;23.90;99.90;;;;;;5017098;28;20194;-66
2023/07/08 01:50:08;;;;;;;15.38;14.88;;;23.90;99.90;;;;;;5012782;28;20205;-64
2023/07/08 01:52:37;;;;;;;16.30;15.70;;;23.90;99.90;;;;;;5014062;28;20233;-68
2023/07/08 01:55:05;;;;;;;16.70;16.10;;;23.90;99.90;;;;;;5015133;28;20211;-67
2023/07/08 01:57:32;;;;;;;17.30;16.70;;;23.80;99.90;;;;;;5015219;28;20217;-69
2023/07/08 01:59:58;;;;;;;18.25;17.65;;;23.80;99.90;;;;;;5014017;28;20197;-65
2023/07/08 02:02:26;;;;;;;16.90;16.30;;;23.80;99.90;;;;;;5020401;28;20227;-67
2023/07/08 02:04:52;;;;;;;16.98;16.38;;;23.70;99.90;;;;;;5019105;28;20671;-64
2023/07/08 02:07:19;;;;;;;16.92;16.33;;;23.60;99.90;;;;;;5015711;28;20209;-68
2023/07/08 02:09:47;;;;;;;15.15;14.65;;;23.60;99.90;;;;;;5014241;28;20610;-65
2023/07/08 02:12:14;;;;;;;14.93;14.38;;;23.60;99.90;;;;;;5014421;28;20229;-64
2023/07/08 02:14:41;;;;;;;15.15;14.65;;;23.60;99.90;;;;;;5014098;28;20212;-64
2023/07/08 02:17:08;;;;;;;15.63;15.07;;;23.60;99.90;;;;;;5014486;28;20201;-67
2023/07/08 02:19:35;;;;;;;14.60;14.10;;;23.50;99.90;;;;;;5013419;28;20678;-68
2023/07/08 02:22:01;;;;;;;14.68;14.18;;;23.50;99.90;;;;;;5013417;28;20217;-66
2023/07/08 02:24:28;;;;;;;15.27;14.77;;;23.50;99.90;;;;;;5013964;28;20211;-67
2023/07/08 02:26:57;;;;;;;13.82;13.23;;;23.40;99.90;;;;;;5013488;28;20216;-66
2023/07/08 02:29:24;;;;;;;14.38;13.88;;;23.40;99.90;;;;;;5012625;28;20227;-64
2023/07/08 02:31:51;;;;;;;13.40;12.90;;;23.40;99.90;;;;;;5013245;28;20231;-67
2023/07/08 02:34:17;;;;;;;14.35;13.85;;;23.40;99.90;;;;;;5018499;28;20252;-66
2023/07/08 02:36:44;;;;;;;13.30;12.80;;;23.40;99.90;;;;;;5014714;28;20876;-64
2023/07/08 02:39:11;;;;;;;13.68;13.18;;;23.40;99.90;;;;;;5013508;28;20209;-66
2023/07/08 02:41:38;;;;;;;12.90;12.40;;;23.40;99.90;;;;;;5013705;28;20205;-65
2023/07/08 02:44:06;;;;;;;12.98;12.38;;;23.30;99.90;;;;;;5013733;28;20233;-65
2023/07/08 02:46:33;;;;;;;13.95;13.35;;;23.30;99.90;;;;;;5013339;28;20201;-66
2023/07/08 02:49:00;;;;;;;13.23;12.75;;;23.30;99.90;;;;;;5010464;28;20208;-70
2023/07/08 02:51:27;;;;;;;13.48;12.98;;;23.20;99.90;;;;;;5012235;28;20213;-68
2023/07/08 02:53:55;;;;;;;12.80;12.40;;;23.20;99.90;;;;;;5014763;28;20659;-65
2023/07/08 02:56:22;;;;;;;13.55;13.05;;;23.20;99.90;;;;;;5015340;28;20587;-65
2023/07/08 02:58:49;;;;;;;12.63;12.13;;;23.10;99.90;;;;;;5014614;28;20209;-66
2023/07/08 03:01:17;;;;;;;13.05;12.55;;;23.10;99.90;;;;;;5012634;28;20224;-65
2023/07/08 03:03:44;;;;;;;12.43;12.02;;;23.10;99.90;;;;;;5027993;28;20236;-67
2023/07/08 03:06:11;;;;;;;11.75;11.35;;;23.00;99.90;;;;;;5020611;28;20304;-67
2023/07/08 03:08:38;;;;;;;11.65;11.23;;;23.00;99.90;;;;;;5014567;28;20201;-66
2023/07/08 03:11:07;;;;;;;11.40;11.00;;;23.00;99.90;;;;;;5013029;28;20205;-68
2023/07/08 03:13:35;;;;;;;11.50;11.10;;;22.90;99.90;;;;;;5013198;28;20231;-66
2023/07/08 03:16:08;;;;;;;11.40;11.00;;;22.90;99.90;;;;;;5013637;28;20209;-65
2023/07/08 03:18:38;;;;;;;11.93;11.52;;;22.90;99.90;;;;;;5012664;28;20247;-66
2023/07/08 03:21:05;;;;;;;12.48;12.07;;;22.90;99.90;;;;;;5011867;28;20206;-65
2023/07/08 03:23:32;;;;;;;12.57;12.07;;;22.80;99.90;;;;;;5012078;28;20236;-67
2023/07/08 03:25:59;;;;;;;13.27;12.77;;;22.70;99.90;;;;;;5012523;28;20212;-66
2023/07/08 03:28:26;;;;;;;13.82;13.32;;;22.60;99.90;;;;;;5012437;28;20269;-67
2023/07/08 03:30:54;;;;;;;12.82;12.32;;;22.50;99.90;;;;;;5010835;28;20217;-67
2023/07/08 03:33:21;;;;;;;13.13;12.63;;;22.30;99.90;;;;;;5012029;28;20233;-67
2023/07/08 03:35:49;;;;;;;11.48;11.07;;;22.30;99.90;;;;;;5011989;28;20598;-67
2023/07/08 03:38:16;;;;;;;11.65;11.25;;;22.20;99.90;;;;;;5011941;28;20209;-67
2023/07/08 03:40:44;;;;;;;11.02;10.63;;;22.20;99.90;;;;;;5009600;28;20213;-66
2023/07/08 03:43:11;;;;;;;11.20;10.80;;;22.10;99.90;;;;;;5012369;28;20221;-65
2023/07/08 03:45:37;;;;;;;11.55;11.15;;;22.10;99.90;;;;;;5013068;28;20209;-66
2023/07/08 03:48:05;;;;;;;12.27;11.82;;;22.10;99.90;;;;;;5012840;28;20209;-68
2023/07/08 03:50:31;;;;;;;12.05;11.65;;;22.10;99.90;;;;;;5012090;28;20559;-65
2023/07/08 03:53:00;;;;;;;11.95;11.55;;;22.20;99.90;;;;;;5011937;28;20714;-68
2023/07/08 03:55:28;;;;;;;12.40;12.00;;;22.30;99.90;;;;;;5014262;28;20212;-67
2023/07/08 03:57:55;;;;;;;11.98;11.57;;;22.30;99.90;;;;;;5011908;28;20802;-66
2023/07/08 04:00:22;;;;;;;11.65;11.25;;;22.50;99.90;;;;;;5010841;28;20292;-66
2023/07/08 04:02:49;;;;;;;12.00;11.60;;;22.50;99.90;;;;;;5013833;28;20225;-66
2023/07/08 04:05:17;;;;;;;12.02;11.63;;;22.50;99.90;;;;;;5020993;28;20210;-65
2023/07/08 04:07:44;;;;;;;12.23;11.82;;;22.50;99.90;;;;;;5011441;28;20702;-65
2023/07/08 04:10:14;;;;;;;12.18;11.73;;;22.40;99.90;;;;;;5010237;28;20209;-69
2023/07/08 04:12:41;;;;;;;12.15;11.75;;;22.50;99.90;;;;;;5010508;28;20241;-65
2023/07/08 04:15:10;;;;;;;11.95;11.55;;;22.50;99.90;;;;;;5012864;28;20237;-66
2023/07/08 04:17:41;;;;;;;11.77;11.38;;;22.50;99.90;;;;;;5011788;28;20676;-68
2023/07/08 04:20:15;;;;;;;12.43;11.93;;;22.40;99.90;;;;;;5009700;28;20189;-65
2023/07/08 04:22:41;;;;;;;12.65;12.15;;;22.40;99.90;;;;;;5012021;28;20243;-67
2023/07/08 04:25:10;;;;;;;12.18;11.77;;;22.40;99.90;;;;;;5012035;28;20217;-66
2023/07/08 04:27:39;;;;;;;11.80;11.40;;;22.30;99.90;;;;;;5012042;28;20220;-68
2023/07/08 04:30:08;;;;;;;11.65;11.25;;;22.30;99.90;;;;;;5011415;28;20652;-65
2023/07/08 04:32:37;;;;;;;11.50;11.10;;;22.30;99.90;;;;;;5012148;28;20271;-67
2023/07/08 04:35:04;;;;;;;12.70;12.20;;;22.30;99.90;;;;;;5017707;28;20209;-67
2023/07/08 04:37:31;;;;;;;13.07;12.63;;;22.40;99.90;;;;;;5024947;28;20231;-66
2023/07/08 04:39:59;;;;;;;12.27;11.88;;;22.40;99.90;;;;;;5014827;28;20208;-58
2023/07/08 04:42:28;;;;;;;12.68;12.18;;;22.50;99.90;;;;;;5012182;28;20668;-58
2023/07/08 04:44:56;;;;;;;12.18;11.77;;;22.70;99.90;;;;;;5013430;28;20259;-57
2023/07/08 04:47:23;;;;;;;12.40;12.00;;;22.90;99.90;;;;;;5016327;28;20292;-56
2023/07/08 04:49:50;;;;;;;12.75;12.25;;;23.00;99.90;;;;;;5000807;28;20690;-58
2023/07/08 04:52:17;;;;;;;11.77;11.38;;;23.10;99.90;;;;;;5011681;28;20229;-58
2023/07/08 04:54:43;;;;;;;11.98;11.57;;;23.20;99.90;;;;;;5006762;28;20209;-56
2023/07/08 04:57:10;;;;;;;11.73;11.32;;;23.20;99.90;;;;;;5006917;28;20216;-57
2023/07/08 04:59:37;;;;;;;10.98;10.57;;;23.30;99.90;;;;;;5012153;28;20574;-57
2023/07/08 05:02:05;;;;;;;11.63;11.23;;;23.30;99.90;;;;;;5011783;28;20205;-57
2023/07/08 05:04:32;;;;;;;11.40;11.00;;;23.30;99.90;;;;;;5020274;28;20204;-57
2023/07/08 05:06:59;;;;;;;11.30;10.90;;;23.50;99.90;;;;;;5024343;28;20205;-56
2023/07/08 05:09:26;;;;;;;11.75;11.35;;;23.60;99.90;;;;;;5011365;28;20208;-58
2023/07/08 05:11:53;;;;;;;11.27;10.88;;;23.70;99.90;;;;;;5011303;28;20321;-64
2023/07/08 05:14:20;;;;;;;10.98;10.57;;;23.90;99.90;;;;;;5011307;28;20209;-57
2023/07/08 05:16:47;;;;;;;10.80;10.40;;;24.00;99.90;;;;;;5011462;28;20209;-58
2023/07/08 05:19:16;;;;;;;10.90;10.50;;;24.10;99.90;;;;;;5010288;28;20723;-57
2023/07/08 05:21:45;;;;;;;11.38;10.98;;;24.20;99.90;;;;;;5010591;28;20212;-57
2023/07/08 05:24:12;;;;;;;10.80;10.40;;;24.30;99.90;;;;;;5013717;28;20232;-57
2023/07/08 05:26:38;;;;;;;10.80;10.40;;;24.40;99.90;;;;;;5015368;28;20233;-58
2023/07/08 05:29:05;;;;;;;11.77;11.38;;;24.40;99.90;;;;;;5013786;28;20215;-58
2023/07/08 05:31:32;;;;;;;11.77;11.38;;;24.40;99.90;;;;;;5015140;28;20624;-57
2023/07/08 05:33:59;;;;;;;11.80;11.40;;;24.50;99.90;;;;;;5014611;28;20225;-58
2023/07/08 05:36:27;;;;;;;12.13;11.73;;;24.50;99.90;;;;;;5014729;28;20216;-57
2023/07/08 05:38:54;;;;;;;12.13;11.73;;;24.60;99.90;;;;;;5018422;28;20213;-58
2023/07/08 05:41:21;;;;;;;12.70;12.20;;;24.60;99.90;;;;;;5022667;28;20233;-57
2023/07/08 05:43:48;;;;;;;12.75;12.35;;;24.60;99.90;;;;;;5001219;28;20313;-57
2023/07/08 05:46:15;;;;;;;13.70;13.20;;;24.60;99.90;;;;;;5003785;28;20198;-56
2023/07/08 05:48:42;;;;;;;13.18;12.68;;;24.60;99.90;;;;;;5011232;28;20216;-57
2023/07/08 05:51:08;;;;;;;13.95;13.45;;;24.70;99.90;;;;;;5009229;28;20202;-57
2023/07/08 05:53:37;;;;;;;13.82;13.32;;;24.80;99.90;;;;;;5010914;28;20308;-57
2023/07/08 05:56:04;;;;;;;13.90;13.40;;;24.70;99.90;;;;;;5003147;28;20210;-56
2023/07/08 05:58:31;;;;;;;14.35;13.85;;;24.70;99.90;;;;;;5005501;28;20213;-58
2023/07/08 06:00:58;;;;;;;13.68;13.18;;;24.60;99.90;;;;;;5002618;28;20206;-58
2023/07/08 06:03:25;;;;;;;14.93;14.32;;;24.60;99.90;;;;;;5003961;28;20244;-58
2023/07/08 06:05:52;;;;;;;14.45;13.95;;;24.60;99.90;;;;;;5005171;28;20208;-58
2023/07/08 06:08:19;;;;;;;14.32;13.80;;;24.60;99.90;;;;;;5010426;28;20274;-59
2023/07/08 06:10:48;;;;;;;14.50;14.00;;;24.60;99.90;;;;;;5016614;28;20673;-57
2023/07/08 06:13:14;;;;;;;13.85;13.35;;;24.70;99.90;;;;;;5006436;28;20698;-58
2023/07/08 06:15:42;;;;;;;14.88;14.38;;;24.80;99.90;;;;;;5004496;28;20779;-57
2023/07/08 06:18:09;;;;;;;14.43;13.93;;;24.80;99.90;;;;;;5001920;28;20212;-56
2023/07/08 06:20:36;;;;;;;13.98;13.48;;;24.90;99.90;;;;;;5005836;28;21431;-56
2023/07/08 06:23:03;;;;;;;14.40;13.90;;;25.00;99.90;;;;;;5010710;28;20227;-57
2023/07/08 06:25:32;;;;;;;14.00;13.40;;;25.00;99.90;;;;;;5010311;28;20201;-58
2023/07/08 06:28:01;;;;;;;13.32;12.82;;;25.10;99.90;;;;;;5008207;28;20201;-57
2023/07/08 06:30:28;;;;;;;13.20;12.70;;;25.10;99.90;;;;;;5006547;28;20201;-56
2023/07/08 06:32:55;;;;;;;12.95;12.45;;;25.10;99.90;;;;;;5007720;28;20320;-56
2023/07/08 06:35:21;;;;;;;13.18;12.70;;;25.20;99.90;;;;;;5008568;28;20201;-58
2023/07/08 06:37:48;;;;;;;13.43;12.93;;;25.20;99.90;;;;;;5007715;28;20199;-57
2023/07/08 06:40:17;;;;;;;14.25;13.75;;;25.30;99.90;;;;;;5003937;28;20197;-56
2023/07/08 06:42:44;;;;;;;12.35;11.95;;;25.40;99.90;;;;;;5004432;28;20654;-57
2023/07/08 06:45:12;;;;;;;12.07;11.68;;;25.50;99.90;;;;;;5003521;28;20194;-57
2023/07/08 06:47:39;;;;;;;13.60;13.10;;;25.80;99.90;;;;;;5004818;28;20198;-63
2023/07/08 06:50:07;;;;;;;12.32;11.93;;;26.00;99.90;;;;;;5002604;28;20292;-67
2023/07/08 06:52:36;;;;;;;12.00;11.60;;;26.20;99.90;;;;;;5004377;28;20229;-67
2023/07/08 06:55:05;;;;;;;12.70;12.20;;;26.40;99.90;;;;;;5002958;28;20201;-68
2023/07/08 06:57:32;;;;;;;12.43;12.02;;;26.40;99.90;;;;;;5003052;28;20289;-65
2023/07/08 06:59:59;;;;;;;13.48;12.98;;;26.30;99.90;;;;;;4996263;28;20289;-63
2023/07/08 07:02:27;;;;;;;15.45;14.95;;;26.40;99.90;;;;;;4992729;28;20230;-65
2023/07/08 07:04:55;;;;;;;16.60;16.00;;;26.40;99.90;;;;;;4996592;28;20694;-63
2023/07/08 07:07:22;;;;;;;15.35;14.85;;;26.40;99.90;;;;;;5004520;28;20201;-70
2023/07/08 07:09:48;;;;;;;15.95;15.25;;;26.50;99.90;;;;;;5002019;28;20211;-67
2023/07/08 07:12:15;;;;;;;16.92;16.33;;;26.50;99.90;;;;;;5014865;28;20210;-64
2023/07/08 07:14:42;;;;;;;17.10;16.50;;;26.50;99.90;;;;;;5022893;28;20664;-65
2023/07/08 07:17:09;;;;;;;18.63;17.98;;;26.50;99.90;;;;;;5013614;28;20212;-65
2023/07/08 07:19:37;;;;;;;17.27;16.67;;;26.60;99.90;;;;;;5005086;28;20285;-65
2023/07/08 07:22:04;;;;;;;17.63;17.02;;;26.70;99.90;;;;;;5008598;28;20696;-64
2023/07/08 07:24:31;;;;;;;17.23;16.63;;;26.80;99.90;;;;;;5007881;28;20572;-65
2023/07/08 07:26:58;;;;;;;16.67;16.08;;;27.10;99.90;;;;;;5000218;28;20236;-64
2023/07/08 07:29:25;;;;;;;15.43;14.93;;;27.30;99.90;;;;;;5011036;28;20605;-66
2023/07/08 07:31:52;;;;;;;14.75;14.25;;;27.50;99.90;;;;;;5007117;28;20198;-64
2023/07/08 07:34:19;;;;;;;14.90;14.40;;;27.70;99.90;;;;;;5003864;28;20721;-67
2023/07/08 07:36:47;;;;;;;15.25;14.70;;;27.80;99.90;;;;;;4996848;28;20221;-64
2023/07/08 07:39:14;;;;;;;16.50;15.90;;;27.90;99.90;;;;;;5012992;28;20212;-66
2023/07/08 07:41:41;;;;;;;15.43;14.93;;;27.90;99.90;;;;;;5020575;28;20290;-66
2023/07/08 07:44:09;;;;;;;13.80;13.30;;;28.10;99.90;;;;;;5001850;28;20234;-66
2023/07/08 07:46:36;;;;;;;13.85;13.35;;;28.10;99.90;;;;;;5013952;28;20209;-66
2023/07/08 07:49:03;;;;;;;13.75;13.25;;;28.00;99.90;;;;;;5018062;28;20217;-63
2023/07/08 07:51:29;;;;;;;13.98;13.48;;;28.00;99.90;;;;;;5012643;28;20201;-66
2023/07/08 07:53:58;;;;;;;14.07;13.57;;;28.00;99.90;;;;;;5012392;28;20691;-66
2023/07/08 07:56:24;;;;;;;12.27;11.88;;;27.90;99.90;;;;;;5012516;28;20219;-66
2023/07/08 08:01:23;;;;;;;12.40;12.00;;;27.30;99.90;;;;;;5007612;28;20217;-67
2023/07/08 08:03:52;;;;;;;11.98;11.57;;;27.20;99.90;;;;;;5011254;28;20212;-66
2023/07/08 08:06:19;;;;;;;12.30;11.90;;;27.10;99.90;;;;;;5011527;28;20209;-66
2023/07/08 08:08:47;;;;;;;11.13;10.73;;;27.10;99.90;;;;;;5012266;28;20201;-65
2023/07/08 08:11:16;;;;;;;11.57;11.18;;;27.00;99.90;;;;;;4992266;28;20241;-67
2023/07/08 08:13:43;;;;;;;11.57;11.18;;;27.00;99.90;;;;;;4992409;28;20226;-67
2023/07/08 08:16:09;;;;;;;11.45;11.05;;;26.90;99.90;;;;;;4993244;28;20201;-66
2023/07/08 08:18:36;;;;;;;10.98;10.57;;;27.10;99.90;;;;;;4994422;28;20214;-66
2023/07/08 08:21:03;;;;;;;13.00;12.55;;;27.50;99.90;;;;;;4991662;28;20257;-66
2023/07/08 08:23:30;;;;;;;14.70;14.20;;;28.00;99.90;;;;;;4991868;28;20212;-67
2023/07/08 08:25:57;;;;;;;15.98;15.38;;;28.40;99.90;;;;;;4994094;28;20720;-64
2023/07/08 08:28:27;;;;;;;13.13;12.65;;;28.80;99.90;;;;;;4994348;28;20297;-65
2023/07/08 08:30:54;;;;;;;12.63;12.13;;;29.00;99.90;;;;;;4990454;28;20225;-65
2023/07/08 08:33:21;;;;;;;12.05;11.65;;;29.00;99.90;;;;;;4991033;28;20226;-68
2023/07/08 08:35:48;;;;;;;10.73;10.32;;;29.00;99.90;;;;;;4991499;28;20216;-66
2023/07/08 08:38:15;;;;;;;11.73;11.32;;;28.90;99.90;;;;;;4991968;28;20216;-67
2023/07/08 08:40:43;;;;;;;10.82;10.43;;;28.90;99.90;;;;;;4991237;28;20310;-66
2023/07/08 08:43:14;;;;;;;11.93;11.52;;;29.00;99.90;;;;;;4991202;28;20208;-67
2023/07/08 08:45:49;;;;;;;10.93;10.43;;;28.90;99.90;;;;;;4991812;28;20194;-67
2023/07/08 08:48:20;;;;;;;11.57;11.18;;;28.80;99.90;;;;;;4991854;28;20764;-65
2023/07/08 08:50:52;;;;;;;12.18;11.77;;;28.60;99.90;;;;;;4990890;28;20226;-64
2023/07/08 08:53:21;;;;;;;11.55;11.15;;;28.80;99.90;;;;;;4992270;28;20229;-69
2023/07/08 08:55:55;;;;;;;11.25;10.85;;;28.80;99.90;;;;;;4993013;28;20202;-66
2023/07/08 08:58:31;;;;;;;11.25;10.85;;;28.80;99.90;;;;;;4992307;28;20205;-67
2023/07/08 09:01:03;;;;;;;11.85;11.45;;;28.90;99.90;;;;;;4990187;28;20247;-68
2023/07/08 09:03:38;;;;;;;11.07;10.68;;;29.20;99.90;;;;;;4989883;28;20237;-65
2023/07/08 09:06:15;;;;;;;10.63;10.23;;;29.30;99.90;;;;;;4991162;28;20897;-65
2023/07/08 09:08:43;;;;;;;11.38;10.98;;;29.20;99.90;;;;;;4991140;28;20284;-67
2023/07/08 09:11:20;;;;;;;10.93;10.52;;;29.00;99.90;;;;;;4989647;28;20232;-66
2023/07/08 09:13:47;;;;;;;13.45;12.95;;;29.20;99.90;;;;;;4991193;28;20777;-66
2023/07/08 09:16:26;;;;;;;10.45;10.05;;;29.20;99.90;;;;;;4990892;28;20241;-68
2023/07/08 09:18:59;;;;;;;10.82;10.43;;;28.80;99.90;;;;;;4990799;28;20569;-66
2023/07/08 09:21:31;;;;;;;11.27;10.88;;;28.50;99.90;;;;;;4990478;28;20198;-67
2023/07/08 09:24:02;;;;;;;12.30;11.80;;;28.50;99.90;;;;;;4989306;28;20193;-67
2023/07/08 09:26:33;;;;;;;11.55;11.15;;;28.60;99.90;;;;;;4992071;28;20269;-66
2023/07/08 09:29:00;;;;;;;13.02;12.52;;;28.70;99.90;;;;;;4989970;28;20214;-68
2023/07/08 09:31:31;;;;;;;12.30;11.80;;;28.80;99.90;;;;;;4987817;28;20268;-66
2023/07/08 09:34:07;;;;;;;12.80;12.35;;;29.10;99.90;;;;;;4991006;28;20206;-66
2023/07/08 09:36:35;;;;;;;13.20;12.70;;;29.20;99.90;;;;;;4991486;28;20677;-66
2023/07/08 09:39:03;;;;;;;12.40;11.90;;;29.20;99.90;;;;;;4991257;28;20217;-68
2023/07/08 09:41:31;;;;;;;11.68;11.18;;;29.40;99.90;;;;;;4990219;28;20268;-66
2023/07/08 09:44:06;;;;;;;11.50;11.10;;;29.60;99.90;;;;;;4990184;28;20208;-68
2023/07/08 09:46:38;;;;;;;10.52;10.13;;;29.70;99.90;;;;;;4990395;28;20205;-66
2023/07/08 09:49:22;;;;;;;9.98;9.63;;;29.90;99.90;;;;;;4989601;28;20218;-68
2023/07/08 09:51:50;;;;;;;10.02;9.63;;;29.80;99.90;;;;;;4989751;28;20186;-66
2023/07/08 09:54:18;;;;;;;10.38;9.98;;;29.80;99.90;;;;;;4990307;28;20291;-66
2023/07/08 09:57:04;;;;;;;10.40;10.00;;;29.90;99.90;;;;;;4989931;28;20212;-67
2023/07/08 09:59:35;;;;;;;10.52;10.13;;;30.00;99.90;;;;;;4989431;28;20649;-67
2023/07/08 10:02:21;;;;;;;10.10;9.80;;;30.10;99.90;;;;;;4989594;28;20210;-66
2023/07/08 10:04:47;;;;;;;10.63;10.23;;;30.20;99.90;;;;;;4990096;28;20182;-67
2023/07/08 10:07:18;;;;;;;11.73;11.32;;;30.40;99.90;;;;;;4989939;28;20288;-67
2023/07/08 10:09:49;;;;;;;11.40;11.00;;;30.60;99.90;;;;;;4989923;28;20226;-68
2023/07/08 10:12:17;;;;;;;11.38;10.98;;;30.80;99.90;;;;;;4992957;28;20244;-67
2023/07/08 10:14:50;;;;;;;10.73;10.32;;;30.80;99.90;;;;;;4995181;28;20312;-67
2023/07/08 10:17:21;;;;;;;10.98;10.57;;;30.90;99.90;;;;;;4996115;28;20221;-67
2023/07/08 10:19:48;;;;;;;9.80;9.40;;;30.70;99.90;;;;;;4982403;28;20219;-67
2023/07/08 10:22:26;;;;;;;9.75;9.45;;;30.60;99.90;;;;;;4993543;28;20213;-66
2023/07/08 10:25:07;;;;;;;11.32;10.93;;;30.60;99.90;;;;;;4987329;28;20700;-67
2023/07/08 10:27:40;;;;;;;12.00;11.60;;;30.70;99.90;;;;;;4987912;28;20558;-68
2023/07/08 10:30:19;;;;;;;11.18;10.77;;;30.90;99.90;;;;;;4989002;28;20705;-71
2023/07/08 10:33:13;;;;;;;11.98;11.57;;;31.00;99.90;;;;;;4995404;28;20248;-69
2023/07/08 10:35:43;;;;;;;11.90;11.50;;;31.30;99.90;;;;;;4986459;28;20210;-68
2023/07/08 10:38:27;;;;;;;11.70;11.30;;;31.60;99.90;;;;;;4991517;28;20199;-68
2023/07/08 10:41:00;;;;;;;10.50;10.10;;;31.60;99.90;;;;;;4986514;28;20221;-67
2023/07/08 10:43:54;;;;;;;10.27;9.93;;;31.70;99.90;;;;;;4991312;28;20290;-69
2023/07/08 10:46:33;;;;;;;10.52;10.13;;;31.90;99.90;;;;;;4988198;28;20664;-68
2023/07/08 10:49:29;;;;;;;11.60;11.20;;;32.10;99.90;;;;;;4989926;28;20201;-67
2023/07/08 10:52:11;;;;;;;10.20;9.80;;;32.10;99.90;;;;;;5002896;28;20237;-65
2023/07/08 10:55:03;;;;;;;11.38;10.98;;;32.30;99.90;;;;;;5008270;28;20228;-70
2023/07/08 10:57:58;;;;;;;12.50;12.00;;;32.40;99.90;;;;;;4994674;28;20316;-68
2023/07/08 11:00:31;;;;;;;11.70;11.30;;;32.40;99.90;;;;;;4988607;28;20340;-65
2023/07/08 11:03:29;;;;;;;11.85;11.45;;;32.20;99.90;;;;;;5001504;28;20586;-66
2023/07/08 11:06:03;;;;;;;11.13;10.73;;;32.40;99.90;;;;;;5013955;28;20219;-64
2023/07/08 11:08:33;;;;;;;11.82;11.43;;;32.40;99.90;;;;;;5012942;28;20216;-64
2023/07/08 11:11:06;;;;;;;11.70;11.30;;;32.30;99.90;;;;;;4997662;28;20232;-64
2023/07/08 11:13:39;;;;;;;11.63;11.23;;;32.40;99.90;;;;;;4987588;28;20209;-65
2023/07/08 11:16:13;;;;;;;11.52;11.13;;;32.40;99.90;;;;;;4993660;28;20297;-65
2023/07/08 11:18:45;;;;;;;15.55;14.95;;;32.40;99.90;;;;;;4993352;28;20202;-67
2023/07/08 11:21:20;;;;;;;14.20;13.70;;;32.50;99.90;;;;;;4993231;28;20316;-64
2023/07/08 11:23:52;;;;;;;13.02;12.52;;;32.60;99.90;;;;;;4995073;28;20296;-66
2023/07/08 11:26:27;;;;;;;13.32;12.82;;;32.70;99.90;;;;;;4995450;28;20285;-64
2023/07/08 11:28:57;;;;;;;13.43;12.93;;;32.80;99.90;;;;;;4996017;28;20294;-65
2023/07/08 11:31:28;;;;;;;12.32;11.93;;;32.70;99.90;;;;;;4994782;28;20198;-64
2023/07/08 11:33:56;;;;;;;13.05;12.55;;;32.80;99.90;;;;;;4992960;28;20210;-66
2023/07/08 11:36:26;;;;;;;11.77;11.38;;;32.90;99.90;;;;;;4994072;28;20244;-65
2023/07/08 11:38:55;;;;;;;11.98;11.57;;;33.00;99.90;;;;;;4992693;28;20214;-66
2023/07/08 11:41:24;;;;;;;12.00;11.60;;;33.00;99.90;;;;;;4990064;28;20256;-64
2023/07/08 11:43:55;;;;;;;11.80;11.40;;;33.20;99.90;;;;;;4990894;28;20210;-65
2023/07/08 11:46:28;;;;;;;12.82;12.32;;;33.30;99.90;;;;;;4988680;28;20226;-63
2023/07/08 11:48:57;;;;;;;12.60;12.13;;;33.40;99.90;;;;;;4990010;28;20659;-66
2023/07/08 11:51:32;;;;;;;13.07;12.57;;;33.40;99.90;;;;;;4993041;28;20680;-68
2023/07/08 11:54:01;;;;;;;12.98;12.48;;;33.60;99.90;;;;;;4994361;28;20217;-64
2023/07/08 11:56:28;;;;;;;12.43;12.02;;;33.60;99.90;;;;;;4994898;28;20282;-66
2023/07/08 11:59:17;;;;;;;12.02;11.63;;;33.70;99.90;;;;;;4994702;28;20288;-65
2023/07/08 12:01:52;;;;;;;11.40;11.00;;;33.70;99.90;;;;;;4993204;28;20206;-64
2023/07/08 12:04:28;;;;;;;11.77;11.38;;;33.70;99.90;;;;;;4993224;28;20187;-64
2023/07/08 12:07:16;;;;;;;11.18;10.77;;;33.70;99.80;;;;;;4993570;28;20216;-64
2023/07/08 12:09:49;;;;;;;24.92;23.67;;;33.70;99.90;;;;;;4994046;28;20830;-65
2023/07/08 12:12:23;;;;;;;11.00;10.60;;;33.70;99.40;;;;;;4996708;28;20730;-66
2023/07/08 12:14:52;;;;;;;12.38;11.98;;;33.60;99.20;;;;;;4996981;28;20220;-66
2023/07/08 12:17:18;;;;;;;12.57;12.07;;;33.60;98.90;;;;;;4996975;28;20272;-66
2023/07/08 12:19:48;;;;;;;12.13;11.73;;;33.70;98.90;;;;;;4992333;28;20313;-66
2023/07/08 12:22:18;;;;;;;11.48;11.07;;;33.70;98.80;;;;;;4992994;28;20201;-67
2023/07/08 12:24:45;;;;;;;12.25;11.85;;;33.80;98.80;;;;;;4995439;28;20273;-67
2023/07/08 12:27:12;;;;;;;12.07;11.65;;;33.80;98.60;;;;;;4995366;28;20214;-66
2023/07/08 12:29:39;;;;;;;15.80;15.20;;;33.90;98.30;;;;;;4994023;28;20234;-66
2023/07/08 12:32:09;;;;;;;14.10;13.60;;;34.00;96.90;;;;;;4989194;28;20202;-66
2023/07/08 12:34:36;;;;;;;14.60;14.10;;;33.90;97.40;;;;;;4990868;28;20242;-66
2023/07/08 12:37:04;;;;;;;13.25;12.75;;;33.90;97.40;;;;;;4990902;28;20674;-66
2023/07/08 12:39:35;;;;;;;17.38;16.73;;;33.90;97.20;;;;;;4989321;28;20214;-66
2023/07/08 12:42:04;;;;;;;14.10;13.60;;;33.90;96.80;;;;;;4988708;28;20202;-65
2023/07/08 12:44:31;;;;;;;13.60;13.10;;;33.90;96.90;;;;;;4990644;28;20202;-66